Time;durP1;ratioP1;P1;durP2;ratioP2;P2;SDS_P1;SDS_P2;PMS_P1;PMS_P2;Temp;Humidity;BMP_temperature;BMP_pressure;BME280_temperature;BME280_humidity;BME280_pressure;Samples;Min_cycle;Max_cycle;Signal;HPM_P1;HPM_P2
2023/08/16 00:00:19;;;;;;;3.60;0.70;;;;;;;;;;5072757;28;20444;-85
2023/08/16 00:02:45;;;;;;;3.93;0.70;;;;;;;;;;5083813;28;20476;-85
2023/08/16 00:05:11;;;;;;;2.77;0.30;;;;;;;;;;5072211;28;20488;-85
2023/08/16 00:07:37;;;;;;;4.90;0.77;;;;;;;;;;5072691;28;20414;-85
2023/08/16 00:10:03;;;;;;;2.40;0.70;;;;;;;;;;5071297;28;20777;-85
2023/08/16 00:12:29;;;;;;;3.53;0.90;;;;;;;;;;5072849;28;20555;-88
2023/08/16 00:14:55;;;;;;;2.80;0.73;;;;;;;;;;5072704;28;20883;-85
2023/08/16 00:17:21;;;;;;;1.97;0.43;;;;;;;;;;5072527;28;20292;-85
2023/08/16 00:19:47;;;;;;;1.73;0.93;;;;;;;;;;5072764;28;20796;-85
2023/08/16 00:22:13;;;;;;;2.40;0.60;;;;;;;;;;5073149;28;20425;-85
2023/08/16 00:24:39;;;;;;;3.40;0.57;;;;;;;;;;5072721;28;20176;-85
2023/08/16 00:27:05;;;;;;;3.50;1.00;;;;;;;;;;5074076;28;20201;-85
2023/08/16 00:29:31;;;;;;;4.13;0.57;;;;;;;;;;5076399;28;20184;-85
2023/08/16 00:31:57;;;;;;;2.40;0.50;;;;;;;;;;5074767;28;20413;-87
2023/08/16 00:34:23;;;;;;;3.90;0.87;;;;;;;;;;5073901;28;20414;-87
2023/08/16 00:36:49;;;;;;;1.80;0.60;;;;;;;;;;5074143;28;20534;-87
2023/08/16 00:39:15;;;;;;;2.83;0.67;;;;;;;;;;5075811;28;20411;-87
2023/08/16 00:41:41;;;;;;;4.37;0.80;;;;;;;;;;5075912;28;20813;-87
2023/08/16 00:44:07;;;;;;;3.37;1.90;;;;;;;;;;5075745;28;20175;-85
2023/08/16 00:46:33;;;;;;;3.10;0.77;;;;;;;;;;5074569;28;20229;-85
2023/08/16 00:48:59;;;;;;;4.23;0.53;;;;;;;;;;5075092;28;20171;-85
2023/08/16 00:51:25;;;;;;;4.90;1.13;;;;;;;;;;5075632;28;20431;-87
2023/08/16 00:53:51;;;;;;;1.60;1.03;;;;;;;;;;5075815;28;20413;-86
2023/08/16 00:56:17;;;;;;;2.63;0.70;;;;;;;;;;5074187;28;20470;-85
2023/08/16 00:58:43;;;;;;;4.67;0.80;;;;;;;;;;5075608;28;20973;-85
2023/08/16 01:01:10;;;;;;;2.20;0.73;;;;;;;;;;5074294;28;20788;-86
2023/08/16 01:03:36;;;;;;;5.20;0.97;;;;;;;;;;5074917;28;20467;-86
2023/08/16 01:06:03;;;;;;;3.93;0.43;;;;;;;;;;5075398;28;20416;-85
2023/08/16 01:08:29;;;;;;;5.80;0.90;;;;;;;;;;5075405;28;20436;-85
2023/08/16 01:10:58;;;;;;;2.63;1.03;;;;;;;;;;5075355;28;20409;-84
2023/08/16 01:13:27;;;;;;;1.97;0.77;;;;;;;;;;5075259;28;20429;-84
2023/08/16 01:15:54;;;;;;;4.47;0.80;;;;;;;;;;5075127;28;20851;-84
2023/08/16 01:18:20;;;;;;;2.53;0.83;;;;;;;;;;5073719;28;20952;-90
2023/08/16 01:20:48;;;;;;;4.30;0.90;;;;;;;;;;5074252;28;20406;-86
2023/08/16 01:23:37;;;;;;;5.67;1.00;;;;;;;;;;5073969;28;20429;-86
2023/08/16 01:26:22;;;;;;;3.00;0.63;;;;;;;;;;5073870;28;20426;-86
2023/08/16 01:28:48;;;;;;;4.47;2.10;;;;;;;;;;5073741;28;20476;-87
2023/08/16 01:31:14;;;;;;;3.23;0.97;;;;;;;;;;5073594;28;21070;-86
2023/08/16 01:33:40;;;;;;;2.20;0.47;;;;;;;;;;5074790;28;20962;-87
2023/08/16 01:36:06;;;;;;;1.50;0.50;;;;;;;;;;5074927;28;20474;-86
2023/08/16 01:38:32;;;;;;;2.17;0.70;;;;;;;;;;5073934;28;20737;-86
2023/08/16 01:40:58;;;;;;;6.40;1.63;;;;;;;;;;5073851;28;20834;-86
2023/08/16 01:43:24;;;;;;;4.97;1.30;;;;;;;;;;5073809;28;20424;-86
2023/08/16 01:45:50;;;;;;;4.20;0.83;;;;;;;;;;5060426;28;20190;-86
2023/08/16 01:48:16;;;;;;;3.60;0.90;;;;;;;;;;5048999;28;20438;-87
2023/08/16 01:50:42;;;;;;;4.03;1.70;;;;;;;;;;5051752;28;20769;-86
2023/08/16 01:53:08;;;;;;;4.30;1.17;;;;;;;;;;5051707;28;20414;-86
2023/08/16 01:55:34;;;;;;;1.47;0.80;;;;;;;;;;5052827;28;20464;-87
2023/08/16 01:58:01;;;;;;;4.53;1.23;;;;;;;;;;5052968;28;20406;-87
2023/08/16 02:00:27;;;;;;;7.00;0.53;;;;;;;;;;5054268;28;20419;-87
2023/08/16 02:02:53;;;;;;;3.40;0.87;;;;;;;;;;5052406;28;20462;-87
2023/08/16 02:05:18;;;;;;;1.67;0.40;;;;;;;;;;5052737;28;20446;-87
2023/08/16 02:07:44;;;;;;;4.80;1.07;;;;;;;;;;5052819;28;20285;-86
2023/08/16 02:10:10;;;;;;;3.80;0.73;;;;;;;;;;5054227;28;20586;-86
2023/08/16 02:12:36;;;;;;;4.83;1.10;;;;;;;;;;5054006;28;20408;-88
2023/08/16 02:15:03;;;;;;;4.20;1.40;;;;;;;;;;5054108;28;20419;-87
2023/08/16 02:17:29;;;;;;;3.67;0.73;;;;;;;;;;5053612;28;20476;-88
2023/08/16 02:19:55;;;;;;;3.00;1.13;;;;;;;;;;5053922;28;20419;-87
2023/08/16 02:22:20;;;;;;;3.07;1.10;;;;;;;;;;5053702;28;20409;-87
2023/08/16 02:24:46;;;;;;;5.67;1.30;;;;;;;;;;5054039;28;20200;-87
2023/08/16 02:27:12;;;;;;;2.20;0.90;;;;;;;;;;5052605;28;20424;-87
2023/08/16 02:29:38;;;;;;;3.13;1.10;;;;;;;;;;5052457;28;20173;-87
2023/08/16 02:32:04;;;;;;;3.23;1.27;;;;;;;;;;5053312;28;20189;-87
2023/08/16 02:34:30;;;;;;;1.90;0.53;;;;;;;;;;5053789;28;20477;-87
2023/08/16 02:36:56;;;;;;;3.43;1.23;;;;;;;;;;5053984;28;20512;-89
2023/08/16 02:39:22;;;;;;;4.50;0.97;;;;;;;;;;5053964;28;20629;-88
2023/08/16 02:41:48;;;;;;;2.40;0.80;;;;;;;;;;5053952;28;20742;-88
2023/08/16 02:44:14;;;;;;;2.03;0.80;;;;;;;;;;5052637;28;20462;-88
2023/08/16 02:46:40;;;;;;;2.83;0.60;;;;;;;;;;5052177;28;20418;-88
2023/08/16 02:49:06;;;;;;;2.40;1.20;;;;;;;;;;5052108;28;20415;-88
2023/08/16 02:51:32;;;;;;;6.50;0.90;;;;;;;;;;5053683;28;20414;-84
2023/08/16 02:53:58;;;;;;;5.43;1.47;;;;;;;;;;5053609;28;20456;-83
2023/08/16 02:56:24;;;;;;;2.60;0.70;;;;;;;;;;5053577;28;20478;-83
2023/08/16 02:58:50;;;;;;;2.50;0.90;;;;;;;;;;5053569;28;20184;-83
2023/08/16 03:01:16;;;;;;;3.67;1.30;;;;;;;;;;5053497;28;20203;-83
2023/08/16 03:03:42;;;;;;;2.67;1.33;;;;;;;;;;5053037;28;20225;-82
2023/08/16 03:06:08;;;;;;;4.90;0.70;;;;;;;;;;5053343;28;20466;-83
2023/08/16 03:08:34;;;;;;;1.73;0.90;;;;;;;;;;5053333;28;20416;-83
2023/08/16 03:11:00;;;;;;;3.20;1.27;;;;;;;;;;5052020;28;20185;-83
2023/08/16 03:13:26;;;;;;;2.00;0.87;;;;;;;;;;5053355;28;20421;-83
2023/08/16 03:15:52;;;;;;;2.20;1.00;;;;;;;;;;5053259;28;20436;-84
2023/08/16 03:18:18;;;;;;;2.57;0.93;;;;;;;;;;5052948;28;20556;-88
2023/08/16 03:20:44;;;;;;;3.00;1.43;;;;;;;;;;5053228;28;20255;-87
2023/08/16 03:23:10;;;;;;;2.87;1.07;;;;;;;;;;5053254;28;20423;-87
2023/08/16 03:25:36;;;;;;;2.97;1.20;;;;;;;;;;5053447;28;20953;-87
2023/08/16 03:28:01;;;;;;;3.40;2.10;;;;;;;;;;5052136;28;20440;-88
2023/08/16 03:30:27;;;;;;;4.73;1.73;;;;;;;;;;5053136;28;20412;-87
2023/08/16 03:32:53;;;;;;;4.37;1.43;;;;;;;;;;5052754;28;20913;-86
2023/08/16 03:35:19;;;;;;;2.20;1.27;;;;;;;;;;5051740;28;20180;-87
2023/08/16 03:37:45;;;;;;;3.60;1.00;;;;;;;;;;5051908;28;20482;-86
2023/08/16 03:40:11;;;;;;;3.20;1.10;;;;;;;;;;5053042;28;20895;-90
2023/08/16 03:42:37;;;;;;;3.93;2.00;;;;;;;;;;5051861;28;20516;-92
2023/08/16 03:45:03;;;;;;;3.70;1.70;;;;;;;;;;5051784;28;20936;-85
2023/08/16 03:47:29;;;;;;;8.30;1.73;;;;;;;;;;5044357;28;20481;-87
2023/08/16 03:49:56;;;;;;;5.10;1.43;;;;;;;;;;5033400;28;20895;-87
2023/08/16 03:52:22;;;;;;;4.97;1.37;;;;;;;;;;5037898;28;20195;-86
2023/08/16 03:54:48;;;;;;;3.03;1.60;;;;;;;;;;5048137;28;20793;-85
2023/08/16 03:57:14;;;;;;;6.03;1.40;;;;;;;;;;5052949;28;20420;-86
2023/08/16 03:59:40;;;;;;;6.10;1.60;;;;;;;;;;5053060;28;20421;-85
2023/08/16 04:02:06;;;;;;;3.90;1.70;;;;;;;;;;5054247;28;20722;-86
2023/08/16 04:04:32;;;;;;;3.17;1.23;;;;;;;;;;5057124;28;20174;-91
2023/08/16 04:07:01;;;;;;;5.80;1.83;;;;;;;;;;5056984;28;20214;-84
2023/08/16 04:09:27;;;;;;;3.63;2.10;;;;;;;;;;5057089;28;20455;-85
2023/08/16 04:11:53;;;;;;;3.00;1.50;;;;;;;;;;5055640;28;21108;-91
2023/08/16 04:14:19;;;;;;;5.30;1.67;;;;;;;;;;5057258;28;20983;-88
2023/08/16 04:16:45;;;;;;;6.00;1.33;;;;;;;;;;5055624;28;20790;-86
2023/08/16 04:19:10;;;;;;;3.10;1.60;;;;;;;;;;5057167;28;20478;-87
2023/08/16 04:21:38;;;;;;;2.47;1.53;;;;;;;;;;5055779;28;20176;-85
2023/08/16 04:24:04;;;;;;;4.27;2.00;;;;;;;;;;5055701;28;20204;-84
2023/08/16 04:26:33;;;;;;;3.70;2.03;;;;;;;;;;5056370;28;20471;-84
2023/08/16 04:28:59;;;;;;;4.90;1.90;;;;;;;;;;5056320;28;20414;-84
2023/08/16 04:31:26;;;;;;;4.63;1.57;;;;;;;;;;5055867;28;20784;-84
2023/08/16 04:33:52;;;;;;;4.33;1.57;;;;;;;;;;5056450;28;20215;-84
2023/08/16 04:36:18;;;;;;;5.10;2.20;;;;;;;;;;5056247;28;20985;-85
2023/08/16 04:38:44;;;;;;;4.40;2.30;;;;;;;;;;5056190;28;20411;-85
2023/08/16 04:41:10;;;;;;;6.60;2.67;;;;;;;;;;5056186;28;20512;-82
2023/08/16 04:43:35;;;;;;;7.30;3.10;;;;;;;;;;5055795;28;20425;-83
2023/08/16 04:46:01;;;;;;;4.97;3.60;;;;;;;;;;5055975;28;20505;-83
2023/08/16 04:48:27;;;;;;;4.20;2.30;;;;;;;;;;5055308;28;20299;-83
2023/08/16 04:50:53;;;;;;;4.33;2.37;;;;;;;;;;5055414;28;20840;-83
2023/08/16 04:53:19;;;;;;;4.10;2.03;;;;;;;;;;5054192;28;20199;-83
2023/08/16 04:55:45;;;;;;;6.20;3.27;;;;;;;;;;5055335;28;20246;-83
2023/08/16 04:58:11;;;;;;;4.60;3.00;;;;;;;;;;5053977;28;20545;-83
2023/08/16 05:00:37;;;;;;;5.00;2.63;;;;;;;;;;5055184;28;20188;-86
2023/08/16 05:03:03;;;;;;;6.93;2.60;;;;;;;;;;5054248;28;20470;-83
2023/08/16 05:05:29;;;;;;;9.13;3.30;;;;;;;;;;5060834;28;20424;-90
2023/08/16 05:07:55;;;;;;;5.47;3.37;;;;;;;;;;5054737;28;20477;-88
2023/08/16 05:10:21;;;;;;;7.70;3.20;;;;;;;;;;5043581;28;20695;-85
2023/08/16 05:12:47;;;;;;;5.57;3.37;;;;;;;;;;5050841;28;20180;-84
2023/08/16 05:15:14;;;;;;;5.47;3.03;;;;;;;;;;5035545;28;20408;-86
2023/08/16 05:17:40;;;;;;;7.90;4.80;;;;;;;;;;5050771;28;20179;-85
2023/08/16 05:20:06;;;;;;;9.73;4.80;;;;;;;;;;5065553;28;20783;-85
2023/08/16 05:22:33;;;;;;;9.10;3.43;;;;;;;;;;5075198;28;20528;-85
2023/08/16 05:24:58;;;;;;;6.30;3.70;;;;;;;;;;5075185;28;20406;-85
2023/08/16 05:27:24;;;;;;;8.77;4.27;;;;;;;;;;5075297;28;21034;-86
2023/08/16 05:29:50;;;;;;;11.70;4.57;;;;;;;;;;5075331;28;20893;-90
2023/08/16 05:32:16;;;;;;;11.77;4.00;;;;;;;;;;5074966;28;20176;-84
2023/08/16 05:34:42;;;;;;;9.53;4.67;;;;;;;;;;5044414;28;20515;-85
2023/08/16 05:37:09;;;;;;;7.33;4.50;;;;;;;;;;5046436;28;20427;-87
2023/08/16 05:39:35;;;;;;;7.30;4.60;;;;;;;;;;5054802;28;20931;-87
2023/08/16 05:42:02;;;;;;;7.33;4.53;;;;;;;;;;5054722;28;20906;-88
2023/08/16 05:44:27;;;;;;;6.00;3.43;;;;;;;;;;5055044;28;20430;-90
2023/08/16 05:46:53;;;;;;;6.90;3.50;;;;;;;;;;5054473;28;20960;-88
2023/08/16 05:49:19;;;;;;;6.33;3.87;;;;;;;;;;5054788;28;20222;-85
2023/08/16 05:51:45;;;;;;;9.03;3.37;;;;;;;;;;5054982;28;20419;-90
2023/08/16 05:54:11;;;;;;;8.40;3.67;;;;;;;;;;5067442;28;20621;-86
2023/08/16 05:56:37;;;;;;;9.70;3.60;;;;;;;;;;5074804;28;20428;-85
2023/08/16 05:59:03;;;;;;;6.07;4.27;;;;;;;;;;5074701;28;20410;-91
2023/08/16 06:01:29;;;;;;;4.13;2.90;;;;;;;;;;5073076;28;20440;-87
2023/08/16 06:03:55;;;;;;;6.90;3.00;;;;;;;;;;5073010;28;20976;-86
2023/08/16 06:06:21;;;;;;;6.57;2.80;;;;;;;;;;5074248;28;20470;-85
2023/08/16 06:08:47;;;;;;;5.97;2.60;;;;;;;;;;5074246;28;20171;-86
2023/08/16 06:11:13;;;;;;;7.33;3.50;;;;;;;;;;5072957;28;20255;-86
2023/08/16 06:13:40;;;;;;;9.20;2.80;;;;;;;;;;5052417;28;20549;-87
2023/08/16 06:16:06;;;;;;;8.33;2.33;;;;;;;;;;5052360;28;20418;-86
2023/08/16 06:18:32;;;;;;;4.63;2.13;;;;;;;;;;5054177;28;20416;-86
2023/08/16 06:20:58;;;;;;;4.00;1.97;;;;;;;;;;5051712;28;20450;-83
2023/08/16 06:23:24;;;;;;;5.90;2.50;;;;;;;;;;5043519;28;20303;-83
2023/08/16 06:25:50;;;;;;;6.60;2.47;;;;;;;;;;5032092;28;20727;-84
2023/08/16 06:28:17;;;;;;;5.23;2.10;;;;;;;;;;5033962;28;20565;-84
2023/08/16 06:30:42;;;;;;;4.30;1.83;;;;;;;;;;5033976;28;20399;-83
2023/08/16 06:33:08;;;;;;;8.97;2.10;;;;;;;;;;5033570;28;20418;-85
2023/08/16 06:35:34;;;;;;;6.90;2.30;;;;;;;;;;5032668;28;20536;-85
2023/08/16 06:38:02;;;;;;;9.03;2.23;;;;;;;;;;5036108;28;20535;-86
2023/08/16 06:40:28;;;;;;;7.53;2.00;;;;;;;;;;5065377;28;20263;-85
2023/08/16 06:42:54;;;;;;;7.50;2.57;;;;;;;;;;5073730;28;20504;-84
2023/08/16 06:45:20;;;;;;;12.93;3.40;;;;;;;;;;5064125;28;20172;-84
2023/08/16 06:47:47;;;;;;;8.43;2.00;;;;;;;;;;5071454;28;20191;-85
2023/08/16 06:50:14;;;;;;;8.23;2.13;;;;;;;;;;5073397;28;20182;-87
2023/08/16 06:52:43;;;;;;;6.90;1.87;;;;;;;;;;5072390;28;20828;-88
2023/08/16 06:55:10;;;;;;;3.33;1.50;;;;;;;;;;5072152;28;20446;-88
2023/08/16 06:57:36;;;;;;;6.30;1.30;;;;;;;;;;5068387;28;20430;-86
2023/08/16 07:00:03;;;;;;;5.90;1.73;;;;;;;;;;5055549;28;20418;-86
2023/08/16 07:02:29;;;;;;;8.20;1.83;;;;;;;;;;5050944;28;20517;-87
2023/08/16 07:04:55;;;;;;;9.70;1.70;;;;;;;;;;5053154;28;20404;-87
2023/08/16 07:07:24;;;;;;;5.23;0.90;;;;;;;;;;5053127;28;20545;-88
2023/08/16 07:10:02;;;;;;;6.10;1.53;;;;;;;;;;5051884;28;20174;-88
2023/08/16 07:12:28;;;;;;;4.37;2.37;;;;;;;;;;5049029;28;20425;-85
2023/08/16 07:14:54;;;;;;;5.70;1.40;;;;;;;;;;5051237;28;20412;-87
2023/08/16 07:17:20;;;;;;;4.37;0.80;;;;;;;;;;5051774;28;20763;-87
2023/08/16 07:19:48;;;;;;;3.83;0.50;;;;;;;;;;5051804;28;20440;-87
2023/08/16 07:22:14;;;;;;;4.63;0.90;;;;;;;;;;5053033;28;20510;-90
2023/08/16 07:24:40;;;;;;;5.13;1.33;;;;;;;;;;5051931;28;20913;-86
2023/08/16 07:27:06;;;;;;;4.13;1.00;;;;;;;;;;5051120;28;20554;-86
2023/08/16 07:29:32;;;;;;;5.03;1.23;;;;;;;;;;5052396;28;20495;-86
2023/08/16 07:31:58;;;;;;;5.70;1.10;;;;;;;;;;5052250;28;20169;-87
2023/08/16 07:34:24;;;;;;;4.03;0.80;;;;;;;;;;5052715;28;20173;-86
2023/08/16 07:36:49;;;;;;;3.23;0.97;;;;;;;;;;5050213;28;20182;-87
2023/08/16 07:39:15;;;;;;;3.90;1.23;;;;;;;;;;5052877;28;20904;-87
2023/08/16 07:41:41;;;;;;;6.03;1.03;;;;;;;;;;5051378;28;20586;-86
2023/08/16 07:44:08;;;;;;;3.27;0.93;;;;;;;;;;5052523;28;20166;-87
2023/08/16 07:46:34;;;;;;;4.43;1.30;;;;;;;;;;5052265;28;20920;-87
2023/08/16 07:49:00;;;;;;;6.23;0.87;;;;;;;;;;5052310;28;20449;-87
2023/08/16 07:51:28;;;;;;;5.57;1.07;;;;;;;;;;5043185;28;20185;-91
2023/08/16 07:53:53;;;;;;;7.67;1.47;;;;;;;;;;5046227;28;20182;-86
2023/08/16 07:56:19;;;;;;;4.03;1.03;;;;;;;;;;5051951;28;20540;-88
2023/08/16 07:58:54;;;;;;;2.13;0.50;;;;;;;;;;5051203;28;20739;-87
2023/08/16 08:01:20;;;;;;;3.53;0.80;;;;;;;;;;5051233;28;20177;-91
2023/08/16 08:03:46;;;;;;;3.83;1.13;;;;;;;;;;5052426;28;20976;-87
2023/08/16 08:06:13;;;;;;;4.87;1.10;;;;;;;;;;5054817;28;20411;-91
2023/08/16 08:08:39;;;;;;;2.83;1.27;;;;;;;;;;5052331;28;20652;-84
2023/08/16 08:11:07;;;;;;;2.03;0.60;;;;;;;;;;5053181;28;20416;-92
2023/08/16 08:13:33;;;;;;;4.37;1.00;;;;;;;;;;5052096;28;20216;-87
2023/08/16 08:16:00;;;;;;;4.40;1.00;;;;;;;;;;5054838;28;20517;-92
2023/08/16 08:18:26;;;;;;;4.30;1.47;;;;;;;;;;5054700;28;20185;-84
2023/08/16 08:20:52;;;;;;;3.10;1.00;;;;;;;;;;5053758;28;20478;-86
2023/08/16 08:23:18;;;;;;;6.00;1.30;;;;;;;;;;5056872;28;20181;-87
2023/08/16 08:25:44;;;;;;;4.00;1.07;;;;;;;;;;5052815;28;20503;-83
2023/08/16 08:28:11;;;;;;;4.40;0.70;;;;;;;;;;5048193;28;20478;-90
2023/08/16 08:30:36;;;;;;;6.53;2.10;;;;;;;;;;5051745;28;20681;-88
2023/08/16 08:33:02;;;;;;;3.57;1.40;;;;;;;;;;5053496;28;20463;-91
2023/08/16 08:35:28;;;;;;;3.50;1.60;;;;;;;;;;5072695;28;20789;-91
2023/08/16 08:37:54;;;;;;;4.80;1.43;;;;;;;;;;5072955;28;20427;-90
2023/08/16 08:40:24;;;;;;;4.83;1.93;;;;;;;;;;5072199;28;20214;-90
2023/08/16 08:42:50;;;;;;;3.10;0.50;;;;;;;;;;5074028;28;20204;-89
2023/08/16 08:45:17;;;;;;;3.60;0.70;;;;;;;;;;5072848;28;20854;-87
2023/08/16 08:47:47;;;;;;;6.00;1.37;;;;;;;;;;5073309;28;20775;-87
2023/08/16 08:50:13;;;;;;;2.80;0.77;;;;;;;;;;5076019;28;20784;-89
2023/08/16 08:52:39;;;;;;;4.13;1.67;;;;;;;;;;5076190;28;20414;-90
2023/08/16 08:55:05;;;;;;;3.93;1.00;;;;;;;;;;5073364;28;20419;-90
2023/08/16 08:57:33;;;;;;;3.17;1.03;;;;;;;;;;5076231;28;20516;-90
2023/08/16 09:00:04;;;;;;;2.33;0.67;;;;;;;;;;5076165;28;20411;-90
2023/08/16 09:02:33;;;;;;;3.93;0.80;;;;;;;;;;5074137;28;20512;-90
2023/08/16 09:05:04;;;;;;;5.23;1.20;;;;;;;;;;5074290;28;20419;-88
2023/08/16 09:07:30;;;;;;;3.67;1.13;;;;;;;;;;5074358;28;20414;-90
2023/08/16 09:09:58;;;;;;;3.70;1.00;;;;;;;;;;5074779;28;20882;-90
2023/08/16 09:12:24;;;;;;;5.67;1.30;;;;;;;;;;5074629;28;20450;-87
2023/08/16 09:14:50;;;;;;;2.30;0.57;;;;;;;;;;5075280;28;20416;-89
2023/08/16 09:17:17;;;;;;;4.93;0.80;;;;;;;;;;5074229;28;20220;-92
2023/08/16 09:19:47;;;;;;;3.60;0.90;;;;;;;;;;5076146;28;20283;-92
2023/08/16 09:22:13;;;;;;;3.90;0.90;;;;;;;;;;5075877;28;20924;-91
2023/08/16 09:24:45;;;;;;;6.70;1.00;;;;;;;;;;5075688;28;20457;-89
2023/08/16 09:27:11;;;;;;;5.27;0.80;;;;;;;;;;5075900;28;20476;-89
2023/08/16 09:29:40;;;;;;;1.90;0.80;;;;;;;;;;5074279;28;20403;-91
2023/08/16 09:32:07;;;;;;;2.50;0.60;;;;;;;;;;5073478;28;20540;-89
2023/08/16 09:34:33;;;;;;;2.88;1.05;;;;;;;;;;5059365;28;20969;-86
2023/08/16 09:37:03;;;;;;;3.87;1.20;;;;;;;;;;5043523;28;20573;-84
2023/08/16 09:39:29;;;;;;;7.30;1.83;;;;;;;;;;5038637;28;20456;-85
2023/08/16 09:41:55;;;;;;;2.77;1.27;;;;;;;;;;5042354;28;20432;-85
2023/08/16 09:44:21;;;;;;;4.87;1.23;;;;;;;;;;5034735;28;20178;-84
2023/08/16 09:46:50;;;;;;;3.63;0.83;;;;;;;;;;5034656;28;20413;-88
2023/08/16 09:49:16;;;;;;;7.20;0.90;;;;;;;;;;5035299;28;20412;-85
2023/08/16 09:51:42;;;;;;;5.23;1.17;;;;;;;;;;5035207;28;20417;-90
2023/08/16 09:54:20;;;;;;;3.90;0.80;;;;;;;;;;5035197;28;20488;-88
2023/08/16 09:56:49;;;;;;;3.33;1.07;;;;;;;;;;5035314;28;20832;-84
2023/08/16 09:59:16;;;;;;;6.10;1.03;;;;;;;;;;5032463;28;20441;-84
2023/08/16 10:01:42;;;;;;;5.37;1.13;;;;;;;;;;5034337;28;20470;-92
2023/08/16 10:04:09;;;;;;;1.90;1.00;;;;;;;;;;5034747;28;20500;-85
2023/08/16 10:06:35;;;;;;;3.47;1.77;;;;;;;;;;5033440;28;20425;-89
2023/08/16 10:09:02;;;;;;;1.63;1.00;;;;;;;;;;5034613;28;20405;-89
2023/08/16 10:11:28;;;;;;;2.87;0.83;;;;;;;;;;5034782;28;20504;-85
2023/08/16 10:13:54;;;;;;;5.67;1.00;;;;;;;;;;5035129;28;20444;-87
2023/08/16 10:16:22;;;;;;;3.33;0.70;;;;;;;;;;5034744;28;20453;-90
2023/08/16 10:18:49;;;;;;;4.83;0.80;;;;;;;;;;5040306;28;20432;-86
2023/08/16 10:21:16;;;;;;;2.57;0.70;;;;;;;;;;5043686;28;20537;-87
2023/08/16 10:24:03;;;;;;;4.83;1.50;;;;;;;;;;5052880;28;20434;-87
2023/08/16 10:26:30;;;;;;;4.00;1.03;;;;;;;;;;5073256;28;20426;-86
2023/08/16 10:29:00;;;;;;;4.17;0.50;;;;;;;;;;5053981;28;20768;-89
2023/08/16 10:31:32;;;;;;;4.93;1.33;;;;;;;;;;5052309;28;20416;-87
2023/08/16 10:33:58;;;;;;;3.57;1.20;;;;;;;;;;5037085;28;20413;-89
2023/08/16 10:36:25;;;;;;;3.50;1.30;;;;;;;;;;5032359;28;20483;-86
2023/08/16 10:38:55;;;;;;;5.53;1.23;;;;;;;;;;5043621;28;20431;-87
2023/08/16 10:41:24;;;;;;;1.60;0.50;;;;;;;;;;5033987;28;20432;-86
2023/08/16 10:43:51;;;;;;;2.90;1.33;;;;;;;;;;5032305;28;20444;-83
2023/08/16 10:46:34;;;;;;;2.50;0.80;;;;;;;;;;5031972;28;20799;-84
2023/08/16 10:49:01;;;;;;;2.10;0.50;;;;;;;;;;5039704;28;20428;-86
2023/08/16 10:51:27;;;;;;;5.07;1.10;;;;;;;;;;5041599;28;20916;-84
2023/08/16 10:53:56;;;;;;;2.93;0.50;;;;;;;;;;5042978;28;20427;-85
2023/08/16 10:56:23;;;;;;;2.60;1.03;;;;;;;;;;5056204;28;20204;-85
2023/08/16 10:58:49;;;;;;;2.17;0.90;;;;;;;;;;5058269;28;20488;-84
2023/08/16 11:01:16;;;;;;;3.33;0.57;;;;;;;;;;5050551;28;20432;-84
2023/08/16 11:03:43;;;;;;;1.07;0.53;;;;;;;;;;5051856;28;20466;-83
2023/08/16 11:06:13;;;;;;;2.03;0.60;;;;;;;;;;5044006;28;20428;-83
2023/08/16 11:08:41;;;;;;;1.30;0.60;;;;;;;;;;5052014;28;20400;-84
2023/08/16 11:11:07;;;;;;;3.60;0.90;;;;;;;;;;5051413;28;20779;-84
2023/08/16 11:13:33;;;;;;;4.10;0.87;;;;;;;;;;5052196;28;20408;-83
2023/08/16 11:15:59;;;;;;;4.30;0.90;;;;;;;;;;5051557;28;20462;-83
2023/08/16 11:18:29;;;;;;;3.73;1.07;;;;;;;;;;5051717;28;20660;-84
2023/08/16 11:20:55;;;;;;;1.70;0.60;;;;;;;;;;5053644;28;20423;-83
2023/08/16 11:23:28;;;;;;;1.60;0.50;;;;;;;;;;5050556;28;20483;-83
2023/08/16 11:25:59;;;;;;;2.40;0.90;;;;;;;;;;5048599;28;20562;-84
2023/08/16 11:28:27;;;;;;;2.30;0.83;;;;;;;;;;5053414;28;20451;-84
2023/08/16 11:30:57;;;;;;;4.00;0.80;;;;;;;;;;5051308;28;20404;-83
2023/08/16 11:33:23;;;;;;;3.13;0.97;;;;;;;;;;5051573;28;20459;-84
2023/08/16 11:35:51;;;;;;;4.53;1.03;;;;;;;;;;5051961;28;20444;-84
2023/08/16 11:38:17;;;;;;;1.63;0.50;;;;;;;;;;5049812;28;20181;-86
2023/08/16 11:40:47;;;;;;;1.73;0.80;;;;;;;;;;5050520;28;20447;-85
2023/08/16 11:43:14;;;;;;;3.30;0.63;;;;;;;;;;5063199;28;20235;-86
2023/08/16 11:45:40;;;;;;;1.30;0.40;;;;;;;;;;5059381;28;20478;-85
2023/08/16 11:48:06;;;;;;;1.43;0.70;;;;;;;;;;5051616;28;20450;-85
2023/08/16 11:50:37;;;;;;;2.37;0.77;;;;;;;;;;5050857;28;20416;-85
2023/08/16 11:53:04;;;;;;;2.93;1.27;;;;;;;;;;5051618;28;20813;-86
2023/08/16 11:55:30;;;;;;;5.27;0.87;;;;;;;;;;5051679;28;20924;-85
2023/08/16 11:58:10;;;;;;;6.63;1.00;;;;;;;;;;5051434;28;21114;-84
2023/08/16 12:00:36;;;;;;;5.10;1.13;;;;;;;;;;5049883;28;20513;-84
2023/08/16 12:03:11;;;;;;;3.13;1.40;;;;;;;;;;5049499;28;20471;-84
2023/08/16 12:05:38;;;;;;;2.10;0.60;;;;;;;;;;5051490;28;20403;-85
2023/08/16 12:08:05;;;;;;;2.70;0.97;;;;;;;;;;5051326;28;20420;-84
2023/08/16 12:10:34;;;;;;;2.07;0.93;;;;;;;;;;5052040;28;21144;-84
2023/08/16 12:13:00;;;;;;;2.40;1.00;;;;;;;;;;5050021;28;20427;-84
2023/08/16 12:15:28;;;;;;;6.00;1.37;;;;;;;;;;5049751;28;20428;-84
2023/08/16 12:17:57;;;;;;;5.73;1.60;;;;;;;;;;5049826;28;20826;-85
2023/08/16 12:20:26;;;;;;;3.63;1.60;;;;;;;;;;5051490;28;20411;-85
2023/08/16 12:22:55;;;;;;;2.73;1.33;;;;;;;;;;5052377;28;20511;-84
2023/08/16 12:25:25;;;;;;;3.00;0.97;;;;;;;;;;5054060;28;20420;-84
2023/08/16 12:27:51;;;;;;;2.23;0.80;;;;;;;;;;5054789;28;20435;-84
2023/08/16 12:30:17;;;;;;;3.40;1.43;;;;;;;;;;5054777;28;20490;-84
2023/08/16 12:32:43;;;;;;;3.77;0.97;;;;;;;;;;5053780;28;20177;-83
2023/08/16 12:35:09;;;;;;;5.17;1.23;;;;;;;;;;5059680;28;20924;-84
2023/08/16 12:37:35;;;;;;;3.17;1.30;;;;;;;;;;5053701;28;20510;-83
2023/08/16 12:40:01;;;;;;;2.60;1.03;;;;;;;;;;5058629;28;20424;-84
2023/08/16 12:42:27;;;;;;;3.67;0.87;;;;;;;;;;5054878;28;20916;-84
2023/08/16 12:44:53;;;;;;;2.80;0.60;;;;;;;;;;5053810;28;20177;-85
2023/08/16 12:47:19;;;;;;;4.67;1.60;;;;;;;;;;5055016;28;20439;-84
2023/08/16 12:49:45;;;;;;;2.50;1.40;;;;;;;;;;5054420;28;20427;-84
2023/08/16 12:52:11;;;;;;;2.83;0.70;;;;;;;;;;5055875;28;20216;-85
2023/08/16 12:54:37;;;;;;;2.80;1.30;;;;;;;;;;5054724;28;20673;-84
2023/08/16 12:57:04;;;;;;;2.80;1.13;;;;;;;;;;5061671;28;20308;-84
2023/08/16 12:59:30;;;;;;;4.13;1.17;;;;;;;;;;5054762;28;20165;-84
2023/08/16 13:01:56;;;;;;;2.87;1.10;;;;;;;;;;5053970;28;20447;-84
2023/08/16 13:04:22;;;;;;;2.43;0.77;;;;;;;;;;5054651;28;20766;-84
2023/08/16 13:06:48;;;;;;;2.70;0.90;;;;;;;;;;5054067;28;20184;-87
2023/08/16 13:09:16;;;;;;;4.57;1.30;;;;;;;;;;5054367;28;20495;-84
2023/08/16 13:11:43;;;;;;;2.60;0.70;;;;;;;;;;5053951;28;20172;-85
2023/08/16 13:14:09;;;;;;;3.20;0.83;;;;;;;;;;5053142;28;20413;-86
2023/08/16 13:16:36;;;;;;;2.73;0.80;;;;;;;;;;5052718;28;20570;-88
2023/08/16 13:19:05;;;;;;;2.83;0.90;;;;;;;;;;5054008;28;20412;-84
2023/08/16 13:21:32;;;;;;;4.47;1.10;;;;;;;;;;5052947;28;20778;-85
2023/08/16 13:24:06;;;;;;;1.50;0.70;;;;;;;;;;5058759;28;20506;-85
2023/08/16 13:26:32;;;;;;;3.27;0.70;;;;;;;;;;5052674;28;20431;-83
2023/08/16 13:28:58;;;;;;;2.03;0.80;;;;;;;;;;5053896;28;20424;-84
2023/08/16 13:31:24;;;;;;;2.30;1.00;;;;;;;;;;5052259;28;20185;-84
2023/08/16 13:33:50;;;;;;;2.63;0.70;;;;;;;;;;5057393;28;20185;-85
2023/08/16 13:36:16;;;;;;;4.80;1.43;;;;;;;;;;5052549;28;20228;-84
2023/08/16 13:38:42;;;;;;;3.40;0.83;;;;;;;;;;5052401;28;20178;-84
2023/08/16 13:41:08;;;;;;;2.33;0.50;;;;;;;;;;5054063;28;20228;-85
2023/08/16 13:43:34;;;;;;;3.50;0.63;;;;;;;;;;5052406;28;20182;-84
2023/08/16 13:46:00;;;;;;;4.53;0.60;;;;;;;;;;5053354;28;20696;-83
2023/08/16 13:48:26;;;;;;;2.60;0.90;;;;;;;;;;5053570;28;20455;-84
2023/08/16 13:50:51;;;;;;;4.60;1.50;;;;;;;;;;5053842;28;20184;-84
2023/08/16 13:53:17;;;;;;;3.73;0.80;;;;;;;;;;5053297;28;20286;-83
2023/08/16 13:55:46;;;;;;;4.10;1.13;;;;;;;;;;5053650;28;20174;-84
2023/08/16 13:58:12;;;;;;;3.87;1.40;;;;;;;;;;5051864;28;20717;-83
2023/08/16 14:00:38;;;;;;;2.23;0.50;;;;;;;;;;5053026;28;20420;-82
2023/08/16 14:03:04;;;;;;;4.07;1.23;;;;;;;;;;5055588;28;20501;-83
2023/08/16 14:05:30;;;;;;;5.20;1.70;;;;;;;;;;5054034;28;20715;-81
2023/08/16 14:07:56;;;;;;;2.73;0.83;;;;;;;;;;5053364;28;20463;-83
2023/08/16 14:10:22;;;;;;;3.20;0.87;;;;;;;;;;5053336;28;20257;-83
2023/08/16 14:12:48;;;;;;;5.97;1.03;;;;;;;;;;5053673;28;20217;-84
2023/08/16 14:15:14;;;;;;;3.07;0.57;;;;;;;;;;5053299;28;20412;-85
2023/08/16 14:17:43;;;;;;;4.67;0.93;;;;;;;;;;5052339;28;20308;-81
2023/08/16 14:20:09;;;;;;;5.47;0.63;;;;;;;;;;5051785;28;20814;-87
2023/08/16 14:22:35;;;;;;;3.80;0.93;;;;;;;;;;5053326;28;20439;-84
2023/08/16 14:25:01;;;;;;;3.40;1.00;;;;;;;;;;5053316;28;20434;-85
2023/08/16 14:27:27;;;;;;;2.73;0.70;;;;;;;;;;5054995;28;21008;-82
2023/08/16 14:29:53;;;;;;;5.07;1.47;;;;;;;;;;5061548;28;20424;-81
2023/08/16 14:32:19;;;;;;;2.47;0.60;;;;;;;;;;5051749;28;20313;-81
2023/08/16 14:34:47;;;;;;;6.13;1.83;;;;;;;;;;5052842;28;20438;-86
2023/08/16 14:37:13;;;;;;;5.13;1.33;;;;;;;;;;5053186;28;20300;-81
2023/08/16 14:39:39;;;;;;;1.83;0.73;;;;;;;;;;5051124;28;20500;-87